sensor_id;sensor_type;location;lat;lon;timestamp;pressure;altitude;pressure_sealevel;temperature;humidity
23361;BME280;11852;50.082;18.554;2023-05-24T00:08:16;98311.5;;;16.8;86.04
23361;BME280;11852;50.082;18.554;2023-05-24T00:12:50;98313.5;;;16.8;86.04
23361;BME280;11852;50.082;18.554;2023-05-24T00:14:32;98315.0;;;16.8;86.04
23361;BME280;11852;50.082;18.554;2023-05-24T00:19:04;98311.5;;;16.8;86.04
23361;BME280;11852;50.082;18.554;2023-05-24T00:48:27;98326.0;;;16.56;85.56
23361;BME280;11852;50.082;18.554;2023-05-24T00:49:48;98326.5;;;16.49;85.56
23361;BME280;11852;50.082;18.554;2023-05-24T00:50:56;98330.5;;;16.49;85.57
23361;BME280;11852;50.082;18.554;2023-05-24T00:52:04;98327.0;;;16.41;86.01
23361;BME280;11852;50.082;18.554;2023-05-24T00:53:44;98327.5;;;16.41;86.01
23361;BME280;11852;50.082;18.554;2023-05-24T00:55:21;98328.0;;;16.41;86.01
23361;BME280;11852;50.082;18.554;2023-05-24T00:56:32;98332.99;;;16.39;85.46
23361;BME280;11852;50.082;18.554;2023-05-24T00:57:49;98332.99;;;16.39;85.46
23361;BME280;11852;50.082;18.554;2023-05-24T00:58:56;98335.5;;;16.43;85.92
23361;BME280;11852;50.082;18.554;2023-05-24T01:00:05;98332.49;;;16.43;85.85
23361;BME280;11852;50.082;18.554;2023-05-24T01:01:12;98333.5;;;16.52;85.74
23361;BME280;11852;50.082;18.554;2023-05-24T01:02:20;98334.0;;;16.48;85.94
23361;BME280;11852;50.082;18.554;2023-05-24T01:03:30;98332.49;;;16.56;85.64
23361;BME280;11852;50.082;18.554;2023-05-24T01:04:37;98334.5;;;16.47;85.97
23361;BME280;11852;50.082;18.554;2023-05-24T01:05:44;98334.0;;;16.25;86.4
23361;BME280;11852;50.082;18.554;2023-05-24T01:08:17;98338.5;;;16.5;85.76
23361;BME280;11852;50.082;18.554;2023-05-24T01:09:28;98334.5;;;16.58;85.47
23361;BME280;11852;50.082;18.554;2023-05-24T01:10:40;98337.0;;;16.6;85.44
23361;BME280;11852;50.082;18.554;2023-05-24T01:13:14;98334.0;;;16.69;85.32
23361;BME280;11852;50.082;18.554;2023-05-24T01:18:04;98334.0;;;16.4;86.26
23361;BME280;11852;50.082;18.554;2023-05-24T01:19:23;98336.5;;;16.44;85.95
23361;BME280;11852;50.082;18.554;2023-05-24T01:20:24;98337.5;;;16.37;86.14
23361;BME280;11852;50.082;18.554;2023-05-24T01:26:39;98343.51;;;16.57;85.74
23361;BME280;11852;50.082;18.554;2023-05-24T01:27:43;98343.0;;;16.56;85.67
23361;BME280;11852;50.082;18.554;2023-05-24T01:28:54;98343.0;;;16.43;85.89
23361;BME280;11852;50.082;18.554;2023-05-24T01:29:59;98340.5;;;16.65;85.4
23361;BME280;11852;50.082;18.554;2023-05-24T01:31:05;98342.01;;;16.72;85.24
23361;BME280;11852;50.082;18.554;2023-05-24T01:32:12;98342.51;;;16.55;85.76
23361;BME280;11852;50.082;18.554;2023-05-24T01:33:20;98342.0;;;16.56;85.84
23361;BME280;11852;50.082;18.554;2023-05-24T01:34:27;98340.0;;;16.64;85.54
23361;BME280;11852;50.082;18.554;2023-05-24T01:35:34;98340.5;;;16.47;86.1
23361;BME280;11852;50.082;18.554;2023-05-24T01:36:41;98343.0;;;16.63;85.54
23361;BME280;11852;50.082;18.554;2023-05-24T01:37:49;98344.0;;;16.72;85.28
23361;BME280;11852;50.082;18.554;2023-05-24T01:38:58;98344.0;;;16.62;85.55
23361;BME280;11852;50.082;18.554;2023-05-24T01:40:06;98346.0;;;16.52;85.93
23361;BME280;11852;50.082;18.554;2023-05-24T01:42:39;98349.0;;;16.59;85.63
23361;BME280;11852;50.082;18.554;2023-05-24T01:43:47;98346.5;;;16.55;85.79
23361;BME280;11852;50.082;18.554;2023-05-24T01:47:27;98348.5;;;16.49;85.99
23361;BME280;11852;50.082;18.554;2023-05-24T01:49:50;98346.5;;;16.32;86.54
23361;BME280;11852;50.082;18.554;2023-05-24T01:50:57;98349.5;;;16.43;86.15
23361;BME280;11852;50.082;18.554;2023-05-24T01:52:07;98348.5;;;16.52;85.87
23361;BME280;11852;50.082;18.554;2023-05-24T01:53:13;98348.5;;;16.59;85.62
23361;BME280;11852;50.082;18.554;2023-05-24T01:54:22;98348.0;;;16.41;86.4
23361;BME280;11852;50.082;18.554;2023-05-24T01:55:27;98349.0;;;16.42;86.21
23361;BME280;11852;50.082;18.554;2023-05-24T01:56:34;98351.0;;;16.47;85.99
23361;BME280;11852;50.082;18.554;2023-05-24T01:57:43;98352.0;;;16.4;86.15
23361;BME280;11852;50.082;18.554;2023-05-24T01:58:50;98351.0;;;16.44;86.04
23361;BME280;11852;50.082;18.554;2023-05-24T01:59:57;98351.0;;;16.36;86.26
23361;BME280;11852;50.082;18.554;2023-05-24T02:01:05;98356.5;;;16.53;85.84
23361;BME280;11852;50.082;18.554;2023-05-24T02:02:13;98355.5;;;16.52;85.86
23361;BME280;11852;50.082;18.554;2023-05-24T02:03:20;98354.51;;;16.49;85.96
23361;BME280;11852;50.082;18.554;2023-05-24T02:04:27;98360.5;;;16.51;85.85
23361;BME280;11852;50.082;18.554;2023-05-24T02:05:35;98356.0;;;16.5;85.95
23361;BME280;11852;50.082;18.554;2023-05-24T02:06:42;98357.49;;;16.35;86.41
23361;BME280;11852;50.082;18.554;2023-05-24T02:07:50;98359.0;;;16.39;86.27
23361;BME280;11852;50.082;18.554;2023-05-24T02:08:57;98361.0;;;16.47;85.96
23361;BME280;11852;50.082;18.554;2023-05-24T02:10:05;98364.5;;;16.41;86.06
23361;BME280;11852;50.082;18.554;2023-05-24T02:11:13;98361.5;;;16.45;86.05
23361;BME280;11852;50.082;18.554;2023-05-24T02:12:21;98360.5;;;16.55;85.78
23361;BME280;11852;50.082;18.554;2023-05-24T02:13:28;98361.5;;;16.5;86.0
23361;BME280;11852;50.082;18.554;2023-05-24T02:14:36;98360.5;;;16.53;85.88
23361;BME280;11852;50.082;18.554;2023-05-24T02:15:44;98363.5;;;16.49;86.04
23361;BME280;11852;50.082;18.554;2023-05-24T02:16:52;98360.5;;;16.53;85.82
23361;BME280;11852;50.082;18.554;2023-05-24T02:17:59;98361.5;;;16.55;85.74
23361;BME280;11852;50.082;18.554;2023-05-24T02:19:09;98361.5;;;16.6;85.65
23361;BME280;11852;50.082;18.554;2023-05-24T02:20:13;98363.0;;;16.43;86.2
23361;BME280;11852;50.082;18.554;2023-05-24T02:21:26;98361.5;;;16.36;86.4
23361;BME280;11852;50.082;18.554;2023-05-24T02:22:30;98364.5;;;16.47;85.85
23361;BME280;11852;50.082;18.554;2023-05-24T02:23:40;98363.5;;;16.49;85.87
23361;BME280;11852;50.082;18.554;2023-05-24T02:24:45;98364.5;;;16.5;85.91
23361;BME280;11852;50.082;18.554;2023-05-24T02:25:52;98360.5;;;16.6;85.57
23361;BME280;11852;50.082;18.554;2023-05-24T02:27:00;98362.5;;;16.5;85.99
23361;BME280;11852;50.082;18.554;2023-05-24T02:28:08;98359.5;;;16.6;85.58
23361;BME280;11852;50.082;18.554;2023-05-24T02:29:15;98360.5;;;16.51;86.02
23361;BME280;11852;50.082;18.554;2023-05-24T02:30:26;98359.5;;;16.64;85.57
23361;BME280;11852;50.082;18.554;2023-05-24T02:31:33;98359.0;;;16.64;85.6
23361;BME280;11852;50.082;18.554;2023-05-24T02:32:41;98357.99;;;16.73;85.29
23361;BME280;11852;50.082;18.554;2023-05-24T02:33:51;98357.5;;;16.79;85.1
23361;BME280;11852;50.082;18.554;2023-05-24T02:34:59;98360.5;;;16.83;84.93
23361;BME280;11852;50.082;18.554;2023-05-24T02:36:06;98357.49;;;16.91;84.84
23361;BME280;11852;50.082;18.554;2023-05-24T02:37:14;98360.0;;;16.9;84.78
23361;BME280;11852;50.082;18.554;2023-05-24T02:38:22;98357.49;;;16.81;85.13
23361;BME280;11852;50.082;18.554;2023-05-24T02:39:29;98357.99;;;16.74;85.31
23361;BME280;11852;50.082;18.554;2023-05-24T02:40:37;98356.99;;;16.82;85.08
23361;BME280;11852;50.082;18.554;2023-05-24T02:41:44;98356.99;;;16.81;85.04
23361;BME280;11852;50.082;18.554;2023-05-24T02:42:51;98353.0;;;16.78;85.23
23361;BME280;11852;50.082;18.554;2023-05-24T02:43:58;98356.0;;;16.68;85.36
23361;BME280;11852;50.082;18.554;2023-05-24T02:45:06;98354.5;;;16.53;86.01
23361;BME280;11852;50.082;18.554;2023-05-24T02:46:13;98357.5;;;16.56;85.62
23361;BME280;11852;50.082;18.554;2023-05-24T02:47:23;98353.5;;;16.65;85.35
23361;BME280;11852;50.082;18.554;2023-05-24T02:48:30;98354.0;;;16.72;85.26
23361;BME280;11852;50.082;18.554;2023-05-24T02:49:38;98355.5;;;16.8;85.04
23361;BME280;11852;50.082;18.554;2023-05-24T02:50:45;98355.0;;;16.78;85.12
23361;BME280;11852;50.082;18.554;2023-05-24T02:51:54;98355.0;;;16.68;85.43
23361;BME280;11852;50.082;18.554;2023-05-24T02:53:04;98359.0;;;16.51;85.92
23361;BME280;11852;50.082;18.554;2023-05-24T02:54:11;98360.0;;;16.52;85.82
23361;BME280;11852;50.082;18.554;2023-05-24T02:55:19;98362.5;;;16.55;85.69
23361;BME280;11852;50.082;18.554;2023-05-24T02:56:25;98361.5;;;16.61;85.43
23361;BME280;11852;50.082;18.554;2023-05-24T02:57:36;98363.0;;;16.65;85.5
23361;BME280;11852;50.082;18.554;2023-05-24T02:58:46;98363.0;;;16.62;85.69
23361;BME280;11852;50.082;18.554;2023-05-24T02:59:53;98365.5;;;16.44;86.33
23361;BME280;11852;50.082;18.554;2023-05-24T03:01:00;98366.5;;;16.41;86.35
23361;BME280;11852;50.082;18.554;2023-05-24T03:02:09;98370.0;;;16.41;86.38
23361;BME280;11852;50.082;18.554;2023-05-24T03:03:16;98371.0;;;16.37;86.6
23361;BME280;11852;50.082;18.554;2023-05-24T03:04:26;98374.5;;;16.33;86.4
23361;BME280;11852;50.082;18.554;2023-05-24T03:05:34;98374.0;;;16.32;86.62
23361;BME280;11852;50.082;18.554;2023-05-24T03:06:42;98379.0;;;16.01;87.54
23361;BME280;11852;50.082;18.554;2023-05-24T03:07:49;98382.0;;;16.01;87.46
23361;BME280;11852;50.082;18.554;2023-05-24T03:08:57;98375.5;;;15.84;88.0
23361;BME280;11852;50.082;18.554;2023-05-24T03:10:07;98378.5;;;15.88;87.74
23361;BME280;11852;50.082;18.554;2023-05-24T03:11:19;98379.0;;;15.98;87.42
23361;BME280;11852;50.082;18.554;2023-05-24T03:12:24;98374.5;;;16.08;87.22
23361;BME280;11852;50.082;18.554;2023-05-24T03:13:34;98379.0;;;15.95;87.58
23361;BME280;11852;50.082;18.554;2023-05-24T03:14:41;98376.5;;;15.99;87.32
23361;BME280;11852;50.082;18.554;2023-05-24T03:15:51;98381.5;;;15.87;87.74
23361;BME280;11852;50.082;18.554;2023-05-24T03:16:58;98379.5;;;15.83;87.85
23361;BME280;11852;50.082;18.554;2023-05-24T03:18:05;98381.0;;;15.79;87.93
23361;BME280;11852;50.082;18.554;2023-05-24T03:19:12;98380.0;;;15.76;88.01
23361;BME280;11852;50.082;18.554;2023-05-24T03:20:19;98383.5;;;15.78;87.88
23361;BME280;11852;50.082;18.554;2023-05-24T03:21:30;98386.5;;;15.78;87.65
23361;BME280;11852;50.082;18.554;2023-05-24T03:22:37;98385.0;;;15.65;87.82
23361;BME280;11852;50.082;18.554;2023-05-24T03:23:45;98391.5;;;15.6;88.09
23361;BME280;11852;50.082;18.554;2023-05-24T03:24:52;98390.0;;;15.69;87.76
23361;BME280;11852;50.082;18.554;2023-05-24T03:26:03;98393.5;;;15.7;87.63
23361;BME280;11852;50.082;18.554;2023-05-24T03:27:11;98396.5;;;15.74;87.63
23361;BME280;11852;50.082;18.554;2023-05-24T03:28:22;98394.5;;;15.75;87.49
23361;BME280;11852;50.082;18.554;2023-05-24T03:29:29;98395.5;;;15.72;87.78
23361;BME280;11852;50.082;18.554;2023-05-24T03:30:39;98398.5;;;15.68;87.52
23361;BME280;11852;50.082;18.554;2023-05-24T03:31:49;98394.5;;;15.73;87.43
23361;BME280;11852;50.082;18.554;2023-05-24T03:32:56;98395.49;;;15.63;87.88
23361;BME280;11852;50.082;18.554;2023-05-24T03:34:03;98395.5;;;15.59;87.73
23361;BME280;11852;50.082;18.554;2023-05-24T03:35:11;98401.0;;;15.35;88.64
23361;BME280;11852;50.082;18.554;2023-05-24T03:36:18;98399.0;;;15.5;88.07
23361;BME280;11852;50.082;18.554;2023-05-24T03:37:28;98398.5;;;15.61;87.73
23361;BME280;11852;50.082;18.554;2023-05-24T03:38:35;98400.5;;;15.68;87.58
23361;BME280;11852;50.082;18.554;2023-05-24T03:39:42;98402.5;;;15.51;88.24
23361;BME280;11852;50.082;18.554;2023-05-24T03:40:49;98407.0;;;15.26;88.81
23361;BME280;11852;50.082;18.554;2023-05-24T03:41:56;98412.0;;;15.26;88.34
23361;BME280;11852;50.082;18.554;2023-05-24T03:43:04;98404.51;;;15.11;88.65
23361;BME280;11852;50.082;18.554;2023-05-24T03:44:11;98413.0;;;15.05;88.68
23361;BME280;11852;50.082;18.554;2023-05-24T03:45:19;98410.0;;;14.69;89.17
23361;BME280;11852;50.082;18.554;2023-05-24T03:46:26;98412.5;;;14.68;89.11
23361;BME280;11852;50.082;18.554;2023-05-24T03:47:33;98417.0;;;14.79;88.61
23361;BME280;11852;50.082;18.554;2023-05-24T03:48:41;98412.0;;;14.64;89.15
23361;BME280;11852;50.082;18.554;2023-05-24T03:49:51;98414.5;;;14.65;88.92
23361;BME280;11852;50.082;18.554;2023-05-24T03:51:01;98419.0;;;14.58;88.67
23361;BME280;11852;50.082;18.554;2023-05-24T03:52:11;98418.5;;;14.61;88.5
23361;BME280;11852;50.082;18.554;2023-05-24T03:53:19;98422.5;;;14.57;88.72
23361;BME280;11852;50.082;18.554;2023-05-24T03:54:26;98427.0;;;14.78;88.01
23361;BME280;11852;50.082;18.554;2023-05-24T03:55:36;98422.5;;;14.56;88.42
23361;BME280;11852;50.082;18.554;2023-05-24T03:56:43;98426.0;;;14.52;88.73
23361;BME280;11852;50.082;18.554;2023-05-24T03:57:50;98430.0;;;14.43;88.58
23361;BME280;11852;50.082;18.554;2023-05-24T03:58:58;98432.49;;;14.4;88.61
23361;BME280;11852;50.082;18.554;2023-05-24T04:00:08;98432.0;;;14.36;88.54
23361;BME280;11852;50.082;18.554;2023-05-24T04:01:15;98438.5;;;14.59;87.99
23361;BME280;11852;50.082;18.554;2023-05-24T04:02:23;98439.0;;;14.49;88.38
23361;BME280;11852;50.082;18.554;2023-05-24T04:03:31;98444.5;;;14.18;88.86
23361;BME280;11852;50.082;18.554;2023-05-24T04:04:38;98440.0;;;14.33;88.37
23361;BME280;11852;50.082;18.554;2023-05-24T04:05:45;98441.0;;;14.38;88.11
23361;BME280;11852;50.082;18.554;2023-05-24T04:06:52;98441.5;;;14.34;88.13
23361;BME280;11852;50.082;18.554;2023-05-24T04:07:59;98447.0;;;14.35;88.04
23361;BME280;11852;50.082;18.554;2023-05-24T04:09:06;98448.5;;;14.26;88.28
23361;BME280;11852;50.082;18.554;2023-05-24T04:10:14;98453.0;;;14.36;87.88
23361;BME280;11852;50.082;18.554;2023-05-24T04:11:24;98453.5;;;14.39;87.85
23361;BME280;11852;50.082;18.554;2023-05-24T04:12:31;98456.0;;;14.17;88.66
23361;BME280;11852;50.082;18.554;2023-05-24T04:13:38;98455.01;;;14.13;88.7
23361;BME280;11852;50.082;18.554;2023-05-24T04:14:45;98456.0;;;14.3;88.06
23361;BME280;11852;50.082;18.554;2023-05-24T04:15:52;98454.5;;;14.32;88.04
23361;BME280;11852;50.082;18.554;2023-05-24T04:16:59;98461.5;;;14.32;87.79
23361;BME280;11852;50.082;18.554;2023-05-24T04:18:07;98461.5;;;14.27;87.76
23361;BME280;11852;50.082;18.554;2023-05-24T04:19:16;98465.0;;;14.08;88.45
23361;BME280;11852;50.082;18.554;2023-05-24T04:20:23;98468.51;;;14.15;88.01
23361;BME280;11852;50.082;18.554;2023-05-24T04:21:33;98466.5;;;14.03;88.56
23361;BME280;11852;50.082;18.554;2023-05-24T04:22:40;98469.0;;;14.09;88.26
23361;BME280;11852;50.082;18.554;2023-05-24T04:23:47;98472.0;;;14.17;88.16
23361;BME280;11852;50.082;18.554;2023-05-24T04:24:55;98477.5;;;13.87;88.69
23361;BME280;11852;50.082;18.554;2023-05-24T04:26:02;98474.0;;;13.83;88.57
23361;BME280;11852;50.082;18.554;2023-05-24T04:27:09;98476.5;;;13.76;88.43
23361;BME280;11852;50.082;18.554;2023-05-24T04:28:16;98475.5;;;13.98;87.63
23361;BME280;11852;50.082;18.554;2023-05-24T04:29:23;98481.0;;;13.98;87.71
23361;BME280;11852;50.082;18.554;2023-05-24T04:30:31;98485.5;;;13.84;88.18
23361;BME280;11852;50.082;18.554;2023-05-24T04:31:39;98484.5;;;13.66;88.72
23361;BME280;11852;50.082;18.554;2023-05-24T04:32:47;98482.49;;;13.89;87.87
23361;BME280;11852;50.082;18.554;2023-05-24T04:33:55;98493.5;;;13.74;88.18
23361;BME280;11852;50.082;18.554;2023-05-24T04:35:01;98495.49;;;13.71;88.15
23361;BME280;11852;50.082;18.554;2023-05-24T04:36:09;98495.0;;;13.5;88.31
23361;BME280;11852;50.082;18.554;2023-05-24T04:37:16;98492.51;;;13.6;88.08
23361;BME280;11852;50.082;18.554;2023-05-24T04:38:23;98495.49;;;13.77;87.53
23361;BME280;11852;50.082;18.554;2023-05-24T04:39:31;98494.0;;;13.79;87.7
23361;BME280;11852;50.082;18.554;2023-05-24T04:40:38;98497.5;;;13.69;87.82
23361;BME280;11852;50.082;18.554;2023-05-24T04:41:50;98496.5;;;13.68;87.87
23361;BME280;11852;50.082;18.554;2023-05-24T04:42:57;98497.5;;;13.83;87.24
23361;BME280;11852;50.082;18.554;2023-05-24T04:44:07;98497.5;;;13.59;87.9
23361;BME280;11852;50.082;18.554;2023-05-24T04:45:14;98502.0;;;13.51;87.87
23361;BME280;11852;50.082;18.554;2023-05-24T04:46:21;98504.5;;;13.43;88.12
23361;BME280;11852;50.082;18.554;2023-05-24T04:47:29;98502.0;;;13.58;87.74
23361;BME280;11852;50.082;18.554;2023-05-24T04:48:36;98507.5;;;13.45;88.21
23361;BME280;11852;50.082;18.554;2023-05-24T04:49:46;98510.0;;;13.57;87.71
23361;BME280;11852;50.082;18.554;2023-05-24T04:50:53;98514.5;;;13.59;87.72
23361;BME280;11852;50.082;18.554;2023-05-24T04:51:59;98510.5;;;13.47;87.96
23361;BME280;11852;50.082;18.554;2023-05-24T04:53:06;98509.5;;;13.6;87.62
23361;BME280;11852;50.082;18.554;2023-05-24T04:54:14;98515.0;;;13.76;87.37
23361;BME280;11852;50.082;18.554;2023-05-24T04:55:21;98517.0;;;13.63;87.57
23361;BME280;11852;50.082;18.554;2023-05-24T04:56:30;98518.0;;;13.51;87.88
23361;BME280;11852;50.082;18.554;2023-05-24T04:57:35;98520.0;;;13.59;87.72
23361;BME280;11852;50.082;18.554;2023-05-24T04:58:42;98518.0;;;13.69;87.14
23361;BME280;11852;50.082;18.554;2023-05-24T04:59:49;98522.5;;;13.82;86.97
23361;BME280;11852;50.082;18.554;2023-05-24T05:00:59;98521.5;;;13.82;87.0
23361;BME280;11852;50.082;18.554;2023-05-24T05:02:06;98521.0;;;13.32;88.53
23361;BME280;11852;50.082;18.554;2023-05-24T05:03:22;98527.0;;;13.27;88.01
23361;BME280;11852;50.082;18.554;2023-05-24T05:04:30;98530.0;;;13.53;87.57
23361;BME280;11852;50.082;18.554;2023-05-24T05:05:37;98532.99;;;13.55;87.39
23361;BME280;11852;50.082;18.554;2023-05-24T05:06:45;98533.5;;;13.51;87.54
23361;BME280;11852;50.082;18.554;2023-05-24T05:07:52;98532.5;;;13.56;87.38
23361;BME280;11852;50.082;18.554;2023-05-24T05:09:00;98537.5;;;13.48;87.49
23361;BME280;11852;50.082;18.554;2023-05-24T05:10:08;98539.5;;;13.43;87.41
23361;BME280;11852;50.082;18.554;2023-05-24T05:11:15;98544.99;;;13.2;88.06
23361;BME280;11852;50.082;18.554;2023-05-24T05:12:25;98542.51;;;13.24;87.78
23361;BME280;11852;50.082;18.554;2023-05-24T05:13:33;98544.5;;;13.34;87.54
23361;BME280;11852;50.082;18.554;2023-05-24T05:14:40;98546.5;;;13.19;88.15
23361;BME280;11852;50.082;18.554;2023-05-24T05:15:50;98551.0;;;13.1;88.07
23361;BME280;11852;50.082;18.554;2023-05-24T05:16:57;98545.49;;;13.04;87.98
23361;BME280;11852;50.082;18.554;2023-05-24T05:18:07;98550.5;;;13.07;87.82
23361;BME280;11852;50.082;18.554;2023-05-24T05:19:17;98549.0;;;13.05;87.85
23361;BME280;11852;50.082;18.554;2023-05-24T05:20:26;98552.5;;;12.79;88.43
23361;BME280;11852;50.082;18.554;2023-05-24T05:21:33;98554.0;;;12.86;88.38
23361;BME280;11852;50.082;18.554;2023-05-24T05:22:44;98551.5;;;13.1;87.68
23361;BME280;11852;50.082;18.554;2023-05-24T05:23:51;98560.0;;;13.37;87.01
23361;BME280;11852;50.082;18.554;2023-05-24T05:24:59;98559.5;;;13.37;86.94
23361;BME280;11852;50.082;18.554;2023-05-24T05:26:06;98557.99;;;13.39;87.02
23361;BME280;11852;50.082;18.554;2023-05-24T05:27:13;98561.0;;;13.48;86.78
23361;BME280;11852;50.082;18.554;2023-05-24T05:28:20;98561.5;;;13.38;87.04
23361;BME280;11852;50.082;18.554;2023-05-24T05:29:27;98565.5;;;13.4;86.97
23361;BME280;11852;50.082;18.554;2023-05-24T05:30:34;98565.5;;;13.52;86.62
23361;BME280;11852;50.082;18.554;2023-05-24T05:31:42;98566.0;;;13.64;86.35
23361;BME280;11852;50.082;18.554;2023-05-24T05:32:49;98568.01;;;13.52;86.9
23361;BME280;11852;50.082;18.554;2023-05-24T05:33:56;98572.0;;;13.52;86.65
23361;BME280;11852;50.082;18.554;2023-05-24T05:35:04;98570.49;;;13.45;86.67
23361;BME280;11852;50.082;18.554;2023-05-24T05:36:16;98569.0;;;13.47;86.54
23361;BME280;11852;50.082;18.554;2023-05-24T05:37:23;98571.0;;;13.68;86.07
23361;BME280;11852;50.082;18.554;2023-05-24T05:38:30;98574.0;;;13.68;86.1
23361;BME280;11852;50.082;18.554;2023-05-24T05:39:37;98572.0;;;13.79;85.81
23361;BME280;11852;50.082;18.554;2023-05-24T05:40:44;98572.5;;;13.86;85.68
23361;BME280;11852;50.082;18.554;2023-05-24T05:41:56;98574.5;;;13.67;85.99
23361;BME280;11852;50.082;18.554;2023-05-24T05:43:03;98571.5;;;13.4;86.67
23361;BME280;11852;50.082;18.554;2023-05-24T05:44:11;98577.0;;;13.37;86.57
23361;BME280;11852;50.082;18.554;2023-05-24T05:45:18;98579.0;;;13.2;87.13
23361;BME280;11852;50.082;18.554;2023-05-24T05:46:25;98576.0;;;12.98;87.4
23361;BME280;11852;50.082;18.554;2023-05-24T05:47:32;98577.5;;;13.14;86.95
23361;BME280;11852;50.082;18.554;2023-05-24T05:48:41;98580.01;;;13.18;86.81
23361;BME280;11852;50.082;18.554;2023-05-24T05:49:48;98580.0;;;13.06;87.18
23361;BME280;11852;50.082;18.554;2023-05-24T05:50:56;98578.5;;;13.08;87.1
23361;BME280;11852;50.082;18.554;2023-05-24T05:52:03;98581.0;;;13.13;86.85
23361;BME280;11852;50.082;18.554;2023-05-24T05:53:11;98581.5;;;13.03;87.2
23361;BME280;11852;50.082;18.554;2023-05-24T05:54:20;98578.5;;;13.31;86.46
23361;BME280;11852;50.082;18.554;2023-05-24T05:55:27;98582.49;;;13.4;86.31
23361;BME280;11852;50.082;18.554;2023-05-24T05:56:34;98581.0;;;13.24;86.58
23361;BME280;11852;50.082;18.554;2023-05-24T05:57:41;98579.51;;;13.42;86.22
23361;BME280;11852;50.082;18.554;2023-05-24T05:58:48;98583.5;;;13.38;86.49
23361;BME280;11852;50.082;18.554;2023-05-24T05:59:55;98582.0;;;13.32;86.68
23361;BME280;11852;50.082;18.554;2023-05-24T06:01:03;98580.51;;;13.3;86.63
23361;BME280;11852;50.082;18.554;2023-05-24T06:02:10;98583.5;;;13.22;86.83
23361;BME280;11852;50.082;18.554;2023-05-24T06:03:17;98580.51;;;13.16;86.97
23361;BME280;11852;50.082;18.554;2023-05-24T06:04:24;98581.5;;;13.24;86.95
23361;BME280;11852;50.082;18.554;2023-05-24T06:05:37;98580.0;;;13.23;87.04
23361;BME280;11852;50.082;18.554;2023-05-24T06:06:45;98586.0;;;13.29;86.68
23361;BME280;11852;50.082;18.554;2023-05-24T06:07:55;98589.5;;;13.23;86.81
23361;BME280;11852;50.082;18.554;2023-05-24T06:09:02;98593.01;;;13.35;86.42
23361;BME280;11852;50.082;18.554;2023-05-24T06:10:10;98593.5;;;13.09;86.85
23361;BME280;11852;50.082;18.554;2023-05-24T06:11:17;98593.5;;;13.06;86.8
23361;BME280;11852;50.082;18.554;2023-05-24T06:12:25;98601.0;;;13.03;86.94
23361;BME280;11852;50.082;18.554;2023-05-24T06:13:32;98602.0;;;12.92;87.1
23361;BME280;11852;50.082;18.554;2023-05-24T06:14:40;98600.0;;;12.84;87.29
23361;BME280;11852;50.082;18.554;2023-05-24T06:15:50;98604.5;;;13.01;86.85
23361;BME280;11852;50.082;18.554;2023-05-24T06:16:57;98600.0;;;12.95;86.98
23361;BME280;11852;50.082;18.554;2023-05-24T06:18:06;98603.5;;;12.87;87.21
23361;BME280;11852;50.082;18.554;2023-05-24T06:19:13;98604.0;;;13.0;86.85
23361;BME280;11852;50.082;18.554;2023-05-24T06:20:21;98604.0;;;13.0;86.9
23361;BME280;11852;50.082;18.554;2023-05-24T06:21:28;98605.0;;;12.94;86.8
23361;BME280;11852;50.082;18.554;2023-05-24T06:22:37;98606.49;;;12.91;86.71
23361;BME280;11852;50.082;18.554;2023-05-24T06:23:45;98610.0;;;12.99;86.51
23361;BME280;11852;50.082;18.554;2023-05-24T06:24:52;98614.5;;;13.05;86.51
23361;BME280;11852;50.082;18.554;2023-05-24T06:25:59;98616.5;;;13.03;86.51
23361;BME280;11852;50.082;18.554;2023-05-24T06:27:06;98616.0;;;13.05;86.55
23361;BME280;11852;50.082;18.554;2023-05-24T06:28:16;98618.51;;;13.13;86.31
23361;BME280;11852;50.082;18.554;2023-05-24T06:29:24;98622.5;;;13.16;86.35
23361;BME280;11852;50.082;18.554;2023-05-24T06:30:34;98621.0;;;13.06;86.69
23361;BME280;11852;50.082;18.554;2023-05-24T06:31:41;98626.5;;;12.94;86.88
23361;BME280;11852;50.082;18.554;2023-05-24T06:35:28;98634.0;;;12.76;87.03
23361;BME280;11852;50.082;18.554;2023-05-24T06:39:25;98641.0;;;12.78;87.3
23361;BME280;11852;50.082;18.554;2023-05-24T06:40:38;98643.5;;;12.82;87.04
23361;BME280;11852;50.082;18.554;2023-05-24T06:41:48;98647.5;;;12.82;86.68
23361;BME280;11852;50.082;18.554;2023-05-24T06:43:13;98650.5;;;12.82;86.68
23361;BME280;11852;50.082;18.554;2023-05-24T06:44:51;98652.0;;;12.82;86.68
23361;BME280;11852;50.082;18.554;2023-05-24T06:45:57;98650.0;;;12.91;86.54
23361;BME280;11852;50.082;18.554;2023-05-24T06:47:09;98648.0;;;12.91;86.86
23361;BME280;11852;50.082;18.554;2023-05-24T06:48:16;98646.0;;;12.73;86.96
23361;BME280;11852;50.082;18.554;2023-05-24T06:49:23;98653.0;;;12.85;86.63
23361;BME280;11852;50.082;18.554;2023-05-24T06:50:30;98650.0;;;12.93;86.46
23361;BME280;11852;50.082;18.554;2023-05-24T06:51:37;98649.0;;;13.08;86.1
23361;BME280;11852;50.082;18.554;2023-05-24T06:52:43;98652.0;;;13.03;86.45
23361;BME280;11852;50.082;18.554;2023-05-24T06:53:50;98652.5;;;12.99;86.61
23361;BME280;11852;50.082;18.554;2023-05-24T06:54:57;98657.0;;;12.75;87.12
23361;BME280;11852;50.082;18.554;2023-05-24T06:56:04;98653.5;;;12.8;86.62
23361;BME280;11852;50.082;18.554;2023-05-24T06:57:11;98654.0;;;12.91;86.36
23361;BME280;11852;50.082;18.554;2023-05-24T06:58:18;98654.51;;;12.95;86.29
23361;BME280;11852;50.082;18.554;2023-05-24T06:59:24;98655.51;;;13.04;86.04
23361;BME280;11852;50.082;18.554;2023-05-24T07:00:31;98657.99;;;13.0;86.1
23361;BME280;11852;50.082;18.554;2023-05-24T07:01:38;98661.5;;;12.98;86.22
23361;BME280;11852;50.082;18.554;2023-05-24T07:02:45;98661.5;;;12.99;86.07
23361;BME280;11852;50.082;18.554;2023-05-24T07:03:52;98665.0;;;12.93;86.29
23361;BME280;11852;50.082;18.554;2023-05-24T07:04:59;98665.5;;;12.88;86.48
23361;BME280;11852;50.082;18.554;2023-05-24T07:06:06;98664.5;;;12.82;86.65
23361;BME280;11852;50.082;18.554;2023-05-24T07:07:12;98665.0;;;12.96;86.1